To NAV CANADA Home Page Login to a new session Search on AWWS site Feedback and Comments Disclaimer Vers la page française équivalente Tips FAQ What's new on the site To the Forecasts and Observations / NOTAM section To "File a Flight Plan" website Publications and other links Update of the User's profile FIC Telephone Numbers My Weather Data Folder Route Weather Data Regional Weather Data Local Weather Data To the Forecasts and Observations / NOTAM section
Request Generated 04/23/2014 at 20:35:31 UTC . Weather information available at that time is displayed.

METAR/TAF

KINGSTON/ON    

METAR CYGK 232000Z 33012G17KT 15SM BKN050 09/M02 A2983 RMK SC7
SLP102=
METAR CYGK 231900Z 34017G23KT 15SM BKN042 09/M01 A2981 RMK SC7
SLP098=
METAR CYGK 231800Z 34015G21KT 15SM BKN038 08/M01 A2981 RMK SC7
SLP097=

TAF CYGK 231938Z 2320/2403 34012G22KT P6SM BKN030
BECMG 2322/2324 33012KT SKC
RMK NXT FCST WILL BE ISSUED AT 241145Z=
Your time UTC time
Weather data provided by Environment Canada and NAV CANADA